sensor_id;sensor_type;location;lat;lon;timestamp;temperature;humidity
69204;DHT22;56317;27.658;85.326;2023-03-16T00:01:27;9.90;99.90
69204;DHT22;56317;27.658;85.326;2023-03-16T00:03:57;9.90;99.90
69204;DHT22;56317;27.658;85.326;2023-03-16T00:06:25;9.90;99.90
69204;DHT22;56317;27.658;85.326;2023-03-16T00:08:52;9.80;99.90
69204;DHT22;56317;27.658;85.326;2023-03-16T00:11:27;9.80;99.90
69204;DHT22;56317;27.658;85.326;2023-03-16T00:13:54;9.70;99.90
69204;DHT22;56317;27.658;85.326;2023-03-16T00:16:21;9.80;99.90
69204;DHT22;56317;27.658;85.326;2023-03-16T00:18:48;9.80;99.90
69204;DHT22;56317;27.658;85.326;2023-03-16T00:21:19;9.80;99.90
69204;DHT22;56317;27.658;85.326;2023-03-16T00:23:46;9.70;99.90
69204;DHT22;56317;27.658;85.326;2023-03-16T00:26:13;9.70;99.90
69204;DHT22;56317;27.658;85.326;2023-03-16T00:28:40;9.80;99.90
69204;DHT22;56317;27.658;85.326;2023-03-16T00:31:10;9.80;99.90
69204;DHT22;56317;27.658;85.326;2023-03-16T00:33:38;9.90;99.90
69204;DHT22;56317;27.658;85.326;2023-03-16T00:36:08;9.90;99.90
69204;DHT22;56317;27.658;85.326;2023-03-16T00:38:39;9.80;99.90
69204;DHT22;56317;27.658;85.326;2023-03-16T00:41:11;9.80;99.90
69204;DHT22;56317;27.658;85.326;2023-03-16T00:43:43;9.80;99.90
69204;DHT22;56317;27.658;85.326;2023-03-16T00:46:12;9.90;99.90
69204;DHT22;56317;27.658;85.326;2023-03-16T00:48:43;10.00;99.90
69204;DHT22;56317;27.658;85.326;2023-03-16T00:51:13;10.00;99.90
69204;DHT22;56317;27.658;85.326;2023-03-16T00:53:42;10.10;99.90
69204;DHT22;56317;27.658;85.326;2023-03-16T00:56:10;10.20;99.90
69204;DHT22;56317;27.658;85.326;2023-03-16T00:58:39;10.20;99.90
69204;DHT22;56317;27.658;85.326;2023-03-16T01:01:17;10.20;99.90
69204;DHT22;56317;27.658;85.326;2023-03-16T01:03:45;10.30;99.90
69204;DHT22;56317;27.658;85.326;2023-03-16T01:06:15;10.40;99.90
69204;DHT22;56317;27.658;85.326;2023-03-16T01:08:46;10.50;99.90
69204;DHT22;56317;27.658;85.326;2023-03-16T01:11:16;10.60;99.90
69204;DHT22;56317;27.658;85.326;2023-03-16T01:13:44;10.70;99.90
69204;DHT22;56317;27.658;85.326;2023-03-16T01:16:15;10.80;99.90
69204;DHT22;56317;27.658;85.326;2023-03-16T01:18:44;10.90;99.90
69204;DHT22;56317;27.658;85.326;2023-03-16T01:21:21;11.10;99.90
69204;DHT22;56317;27.658;85.326;2023-03-16T01:23:48;11.30;99.90
69204;DHT22;56317;27.658;85.326;2023-03-16T01:26:16;11.40;99.90
69204;DHT22;56317;27.658;85.326;2023-03-16T01:28:44;11.50;99.90
69204;DHT22;56317;27.658;85.326;2023-03-16T01:31:12;11.70;99.90
69204;DHT22;56317;27.658;85.326;2023-03-16T01:33:41;11.90;99.90
69204;DHT22;56317;27.658;85.326;2023-03-16T01:36:11;12.10;99.90
69204;DHT22;56317;27.658;85.326;2023-03-16T01:38:39;12.30;99.90
69204;DHT22;56317;27.658;85.326;2023-03-16T01:41:06;12.50;99.90
69204;DHT22;56317;27.658;85.326;2023-03-16T01:43:36;12.70;99.90
69204;DHT22;56317;27.658;85.326;2023-03-16T01:48:57;13.20;99.90
69204;DHT22;56317;27.658;85.326;2023-03-16T01:51:42;13.40;99.90
69204;DHT22;56317;27.658;85.326;2023-03-16T01:57:00;13.90;99.90
69204;DHT22;56317;27.658;85.326;2023-03-16T01:59:37;14.10;99.90
69204;DHT22;56317;27.658;85.326;2023-03-16T02:02:05;14.30;99.90
69204;DHT22;56317;27.658;85.326;2023-03-16T02:07:15;14.60;99.90
69204;DHT22;56317;27.658;85.326;2023-03-16T02:09:45;14.80;99.90
69204;DHT22;56317;27.658;85.326;2023-03-16T02:12:15;14.90;99.90
69204;DHT22;56317;27.658;85.326;2023-03-16T02:14:45;15.20;99.90
69204;DHT22;56317;27.658;85.326;2023-03-16T02:17:18;15.40;99.90
69204;DHT22;56317;27.658;85.326;2023-03-16T02:20:18;15.60;99.90
69204;DHT22;56317;27.658;85.326;2023-03-16T02:22:51;15.90;99.90
69204;DHT22;56317;27.658;85.326;2023-03-16T02:25:30;16.30;99.90
69204;DHT22;56317;27.658;85.326;2023-03-16T02:28:11;16.70;99.90
69204;DHT22;56317;27.658;85.326;2023-03-16T02:30:41;17.00;99.90
69204;DHT22;56317;27.658;85.326;2023-03-16T02:33:08;17.20;99.90
69204;DHT22;56317;27.658;85.326;2023-03-16T02:35:36;17.40;99.90
69204;DHT22;56317;27.658;85.326;2023-03-16T02:38:03;17.40;99.90
69204;DHT22;56317;27.658;85.326;2023-03-16T02:40:33;17.50;99.90
69204;DHT22;56317;27.658;85.326;2023-03-16T02:45:51;17.20;99.90
69204;DHT22;56317;27.658;85.326;2023-03-16T02:50:59;17.00;99.90
69204;DHT22;56317;27.658;85.326;2023-03-16T02:53:27;17.00;99.90
69204;DHT22;56317;27.658;85.326;2023-03-16T02:55:54;17.10;99.90
69204;DHT22;56317;27.658;85.326;2023-03-16T02:58:21;17.20;99.90
69204;DHT22;56317;27.658;85.326;2023-03-16T03:00:48;17.30;99.90
69204;DHT22;56317;27.658;85.326;2023-03-16T03:03:16;17.50;99.90
69204;DHT22;56317;27.658;85.326;2023-03-16T03:05:43;17.50;99.90
69204;DHT22;56317;27.658;85.326;2023-03-16T03:08:11;17.60;99.90
69204;DHT22;56317;27.658;85.326;2023-03-16T03:10:38;17.90;99.90
69204;DHT22;56317;27.658;85.326;2023-03-16T03:13:06;18.00;99.90
69204;DHT22;56317;27.658;85.326;2023-03-16T03:15:34;18.20;99.90
69204;DHT22;56317;27.658;85.326;2023-03-16T03:18:01;18.40;99.90
69204;DHT22;56317;27.658;85.326;2023-03-16T03:20:29;18.80;99.90
69204;DHT22;56317;27.658;85.326;2023-03-16T03:22:57;19.00;99.90
69204;DHT22;56317;27.658;85.326;2023-03-16T03:25:24;19.20;99.90
69204;DHT22;56317;27.658;85.326;2023-03-16T03:27:52;19.50;99.90
69204;DHT22;56317;27.658;85.326;2023-03-16T03:30:23;19.60;99.90
69204;DHT22;56317;27.658;85.326;2023-03-16T03:32:51;19.80;99.90
69204;DHT22;56317;27.658;85.326;2023-03-16T03:35:18;20.10;99.90
69204;DHT22;56317;27.658;85.326;2023-03-16T03:37:48;20.30;99.90
69204;DHT22;56317;27.658;85.326;2023-03-16T03:40:17;20.50;99.90
69204;DHT22;56317;27.658;85.326;2023-03-16T03:42:45;20.80;99.90
69204;DHT22;56317;27.658;85.326;2023-03-16T03:45:13;21.10;99.80
69204;DHT22;56317;27.658;85.326;2023-03-16T03:47:41;21.40;99.30
69204;DHT22;56317;27.658;85.326;2023-03-16T03:50:10;21.60;98.10
69204;DHT22;56317;27.658;85.326;2023-03-16T03:52:40;21.70;97.50
69204;DHT22;56317;27.658;85.326;2023-03-16T03:55:17;22.00;97.00
69204;DHT22;56317;27.658;85.326;2023-03-16T03:57:45;22.30;95.70
69204;DHT22;56317;27.658;85.326;2023-03-16T04:00:13;22.40;94.90
69204;DHT22;56317;27.658;85.326;2023-03-16T04:02:40;22.70;95.60
69204;DHT22;56317;27.658;85.326;2023-03-16T04:05:08;22.90;93.70
69204;DHT22;56317;27.658;85.326;2023-03-16T04:07:35;23.10;91.70
69204;DHT22;56317;27.658;85.326;2023-03-16T04:10:03;23.20;90.70
69204;DHT22;56317;27.658;85.326;2023-03-16T04:12:30;23.40;90.30
69204;DHT22;56317;27.658;85.326;2023-03-16T04:14:57;23.50;89.60
69204;DHT22;56317;27.658;85.326;2023-03-16T04:17:27;23.80;87.90
69204;DHT22;56317;27.658;85.326;2023-03-16T04:19:55;23.90;86.50
69204;DHT22;56317;27.658;85.326;2023-03-16T04:22:22;24.10;86.90
69204;DHT22;56317;27.658;85.326;2023-03-16T04:24:49;24.30;84.70
69204;DHT22;56317;27.658;85.326;2023-03-16T04:27:17;24.50;84.70
69204;DHT22;56317;27.658;85.326;2023-03-16T04:29:45;24.70;82.10
69204;DHT22;56317;27.658;85.326;2023-03-16T04:32:12;25.00;80.00
69204;DHT22;56317;27.658;85.326;2023-03-16T04:34:39;25.30;76.70
69204;DHT22;56317;27.658;85.326;2023-03-16T04:37:09;25.50;79.00
69204;DHT22;56317;27.658;85.326;2023-03-16T04:39:37;25.80;78.10
69204;DHT22;56317;27.658;85.326;2023-03-16T04:42:05;26.10;74.90
69204;DHT22;56317;27.658;85.326;2023-03-16T04:44:32;26.50;73.60
69204;DHT22;56317;27.658;85.326;2023-03-16T04:46:59;26.90;72.10
69204;DHT22;56317;27.658;85.326;2023-03-16T04:49:27;27.20;71.20
69204;DHT22;56317;27.658;85.326;2023-03-16T04:51:58;27.50;69.50
69204;DHT22;56317;27.658;85.326;2023-03-16T04:54:26;27.90;67.70
69204;DHT22;56317;27.658;85.326;2023-03-16T04:56:54;28.10;66.10
69204;DHT22;56317;27.658;85.326;2023-03-16T04:59:21;28.20;63.90
69204;DHT22;56317;27.658;85.326;2023-03-16T05:01:58;28.20;64.40
69204;DHT22;56317;27.658;85.326;2023-03-16T05:04:25;28.30;62.10
69204;DHT22;56317;27.658;85.326;2023-03-16T05:06:55;28.20;62.00
69204;DHT22;56317;27.658;85.326;2023-03-16T05:09:23;28.40;61.40
69204;DHT22;56317;27.658;85.326;2023-03-16T05:11:54;28.70;60.20
69204;DHT22;56317;27.658;85.326;2023-03-16T05:14:21;29.00;59.70
69204;DHT22;56317;27.658;85.326;2023-03-16T05:16:49;29.50;56.60
69204;DHT22;56317;27.658;85.326;2023-03-16T05:19:21;29.90;55.80
69204;DHT22;56317;27.658;85.326;2023-03-16T05:21:48;30.00;54.00
69204;DHT22;56317;27.658;85.326;2023-03-16T05:24:16;30.50;52.50
69204;DHT22;56317;27.658;85.326;2023-03-16T05:26:44;31.20;51.40
69204;DHT22;56317;27.658;85.326;2023-03-16T05:29:12;31.40;51.20
69204;DHT22;56317;27.658;85.326;2023-03-16T05:31:39;32.40;50.20
69204;DHT22;56317;27.658;85.326;2023-03-16T05:34:06;33.50;48.40
69204;DHT22;56317;27.658;85.326;2023-03-16T05:36:34;32.80;48.10
69204;DHT22;56317;27.658;85.326;2023-03-16T05:39:01;32.00;48.70
69204;DHT22;56317;27.658;85.326;2023-03-16T05:41:29;30.80;47.90
69204;DHT22;56317;27.658;85.326;2023-03-16T05:43:57;29.60;48.80
69204;DHT22;56317;27.658;85.326;2023-03-16T05:46:24;28.60;50.80
69204;DHT22;56317;27.658;85.326;2023-03-16T05:48:52;28.00;50.10
69204;DHT22;56317;27.658;85.326;2023-03-16T05:51:19;27.30;51.00
69204;DHT22;56317;27.658;85.326;2023-03-16T05:53:47;26.70;51.80
69204;DHT22;56317;27.658;85.326;2023-03-16T05:56:15;26.40;52.20
69204;DHT22;56317;27.658;85.326;2023-03-16T05:58:42;26.00;52.50
69204;DHT22;56317;27.658;85.326;2023-03-16T06:01:09;25.60;53.70
69204;DHT22;56317;27.658;85.326;2023-03-16T06:03:38;25.50;54.50
69204;DHT22;56317;27.658;85.326;2023-03-16T06:06:07;25.50;54.70
69204;DHT22;56317;27.658;85.326;2023-03-16T06:08:34;26.50;56.20
69204;DHT22;56317;27.658;85.326;2023-03-16T06:11:10;28.20;53.60
69204;DHT22;56317;27.658;85.326;2023-03-16T06:13:41;29.20;52.90
69204;DHT22;56317;27.658;85.326;2023-03-16T06:16:12;31.00;51.00
69204;DHT22;56317;27.658;85.326;2023-03-16T06:18:40;32.70;49.00
69204;DHT22;56317;27.658;85.326;2023-03-16T06:21:10;34.00;48.00
69204;DHT22;56317;27.658;85.326;2023-03-16T06:23:38;35.50;46.60
69204;DHT22;56317;27.658;85.326;2023-03-16T06:26:05;36.50;45.60
69204;DHT22;56317;27.658;85.326;2023-03-16T06:28:32;37.40;43.70
69204;DHT22;56317;27.658;85.326;2023-03-16T06:31:00;38.00;42.50
69204;DHT22;56317;27.658;85.326;2023-03-16T06:33:27;38.60;43.00
69204;DHT22;56317;27.658;85.326;2023-03-16T06:35:54;38.70;40.30
69204;DHT22;56317;27.658;85.326;2023-03-16T06:38:21;39.30;41.10
69204;DHT22;56317;27.658;85.326;2023-03-16T06:40:52;40.00;39.70
69204;DHT22;56317;27.658;85.326;2023-03-16T06:43:20;40.70;38.80
69204;DHT22;56317;27.658;85.326;2023-03-16T06:45:47;41.70;38.30
69204;DHT22;56317;27.658;85.326;2023-03-16T06:48:15;42.30;37.80
69204;DHT22;56317;27.658;85.326;2023-03-16T06:50:44;42.90;37.30
69204;DHT22;56317;27.658;85.326;2023-03-16T06:53:12;43.30;36.10
69204;DHT22;56317;27.658;85.326;2023-03-16T06:55:39;42.70;35.60
69204;DHT22;56317;27.658;85.326;2023-03-16T06:58:07;42.10;36.00
69204;DHT22;56317;27.658;85.326;2023-03-16T07:00:34;41.90;35.70
69204;DHT22;56317;27.658;85.326;2023-03-16T07:03:05;39.70;35.40
69204;DHT22;56317;27.658;85.326;2023-03-16T07:05:32;37.10;37.20
69204;DHT22;56317;27.658;85.326;2023-03-16T07:07:59;35.50;38.60
69204;DHT22;56317;27.658;85.326;2023-03-16T07:10:27;34.60;39.00
69204;DHT22;56317;27.658;85.326;2023-03-16T07:12:54;34.10;40.00
69204;DHT22;56317;27.658;85.326;2023-03-16T07:15:22;34.20;40.10
69204;DHT22;56317;27.658;85.326;2023-03-16T07:17:52;34.90;40.00
69204;DHT22;56317;27.658;85.326;2023-03-16T07:20:19;36.10;39.60
69204;DHT22;56317;27.658;85.326;2023-03-16T07:22:47;36.90;38.80
69204;DHT22;56317;27.658;85.326;2023-03-16T07:25:14;37.00;38.40
69204;DHT22;56317;27.658;85.326;2023-03-16T07:27:42;37.10;38.80
69204;DHT22;56317;27.658;85.326;2023-03-16T07:30:11;37.50;38.10
69204;DHT22;56317;27.658;85.326;2023-03-16T07:32:41;37.80;38.60
69204;DHT22;56317;27.658;85.326;2023-03-16T07:35:10;38.60;37.90
69204;DHT22;56317;27.658;85.326;2023-03-16T07:37:37;38.50;37.50
69204;DHT22;56317;27.658;85.326;2023-03-16T07:40:05;37.80;37.50
69204;DHT22;56317;27.658;85.326;2023-03-16T07:42:35;37.40;38.00
69204;DHT22;56317;27.658;85.326;2023-03-16T07:45:04;37.00;37.40
69204;DHT22;56317;27.658;85.326;2023-03-16T07:47:31;37.10;37.90
69204;DHT22;56317;27.658;85.326;2023-03-16T07:49:59;37.10;37.70
69204;DHT22;56317;27.658;85.326;2023-03-16T07:52:27;37.10;38.40
69204;DHT22;56317;27.658;85.326;2023-03-16T07:54:54;36.80;37.60
69204;DHT22;56317;27.658;85.326;2023-03-16T07:57:22;36.30;38.10
69204;DHT22;56317;27.658;85.326;2023-03-16T07:59:49;35.00;38.40
69204;DHT22;56317;27.658;85.326;2023-03-16T08:02:18;33.10;39.60
69204;DHT22;56317;27.658;85.326;2023-03-16T08:04:47;31.70;40.60
69204;DHT22;56317;27.658;85.326;2023-03-16T08:07:15;30.30;42.20
69204;DHT22;56317;27.658;85.326;2023-03-16T08:09:43;29.20;42.70
69204;DHT22;56317;27.658;85.326;2023-03-16T08:12:10;28.70;44.10
69204;DHT22;56317;27.658;85.326;2023-03-16T08:14:37;28.60;44.60
69204;DHT22;56317;27.658;85.326;2023-03-16T08:17:05;29.20;44.70
69204;DHT22;56317;27.658;85.326;2023-03-16T08:19:35;30.20;44.50
69204;DHT22;56317;27.658;85.326;2023-03-16T08:22:11;30.90;43.90
69204;DHT22;56317;27.658;85.326;2023-03-16T08:24:39;31.80;43.70
69204;DHT22;56317;27.658;85.326;2023-03-16T08:27:06;32.70;43.10
69204;DHT22;56317;27.658;85.326;2023-03-16T08:29:36;32.80;41.90
69204;DHT22;56317;27.658;85.326;2023-03-16T08:32:04;32.40;42.70
69204;DHT22;56317;27.658;85.326;2023-03-16T08:34:31;31.60;43.10
69204;DHT22;56317;27.658;85.326;2023-03-16T08:36:59;31.40;43.50
69204;DHT22;56317;27.658;85.326;2023-03-16T08:39:26;31.30;43.90
69204;DHT22;56317;27.658;85.326;2023-03-16T08:41:54;31.50;44.10
69204;DHT22;56317;27.658;85.326;2023-03-16T08:44:25;30.70;44.60
69204;DHT22;56317;27.658;85.326;2023-03-16T08:46:53;29.60;45.50
69204;DHT22;56317;27.658;85.326;2023-03-16T08:49:20;28.90;46.30
69204;DHT22;56317;27.658;85.326;2023-03-16T08:51:49;28.30;47.70
69204;DHT22;56317;27.658;85.326;2023-03-16T08:54:16;27.70;48.70
69204;DHT22;56317;27.658;85.326;2023-03-16T08:56:44;27.50;49.90
69204;DHT22;56317;27.658;85.326;2023-03-16T08:59:11;27.20;50.40
69204;DHT22;56317;27.658;85.326;2023-03-16T09:01:39;26.70;51.20
69204;DHT22;56317;27.658;85.326;2023-03-16T09:04:06;26.80;51.10
69204;DHT22;56317;27.658;85.326;2023-03-16T09:06:33;27.00;51.10
69204;DHT22;56317;27.658;85.326;2023-03-16T09:09:01;27.50;51.10
69204;DHT22;56317;27.658;85.326;2023-03-16T09:11:30;27.50;50.70
69204;DHT22;56317;27.658;85.326;2023-03-16T09:13:59;27.10;51.00
69204;DHT22;56317;27.658;85.326;2023-03-16T09:16:27;26.80;51.30
69204;DHT22;56317;27.658;85.326;2023-03-16T09:18:59;26.60;52.00
69204;DHT22;56317;27.658;85.326;2023-03-16T09:21:26;27.20;51.60
69204;DHT22;56317;27.658;85.326;2023-03-16T09:23:54;27.70;51.40
69204;DHT22;56317;27.658;85.326;2023-03-16T09:26:21;27.50;51.10
69204;DHT22;56317;27.658;85.326;2023-03-16T09:28:49;27.30;51.30
69204;DHT22;56317;27.658;85.326;2023-03-16T09:31:19;26.70;51.60
69204;DHT22;56317;27.658;85.326;2023-03-16T09:33:47;26.20;52.20
69204;DHT22;56317;27.658;85.326;2023-03-16T09:36:17;25.70;53.80
69204;DHT22;56317;27.658;85.326;2023-03-16T09:38:46;25.30;54.50
69204;DHT22;56317;27.658;85.326;2023-03-16T09:46:47;24.10;56.90
69204;DHT22;56317;27.658;85.326;2023-03-16T09:49:18;23.70;57.70
69204;DHT22;56317;27.658;85.326;2023-03-16T10:03:14;23.20;61.00
69204;DHT22;56317;27.658;85.326;2023-03-16T10:05:43;22.90;61.10
69204;DHT22;56317;27.658;85.326;2023-03-16T10:08:27;22.80;61.60
69204;DHT22;56317;27.658;85.326;2023-03-16T10:14:29;22.20;63.50
69204;DHT22;56317;27.658;85.326;2023-03-16T10:17:04;22.00;64.50
69204;DHT22;56317;27.658;85.326;2023-03-16T10:22:45;21.70;66.40
69204;DHT22;56317;27.658;85.326;2023-03-16T10:25:26;21.60;67.10
69204;DHT22;56317;27.658;85.326;2023-03-16T10:27:56;21.50;67.80
69204;DHT22;56317;27.658;85.326;2023-03-16T10:30:27;21.60;67.50
69204;DHT22;56317;27.658;85.326;2023-03-16T10:33:01;21.70;67.80
69204;DHT22;56317;27.658;85.326;2023-03-16T10:38:42;21.80;68.50
69204;DHT22;56317;27.658;85.326;2023-03-16T10:44:05;21.60;70.40
69204;DHT22;56317;27.658;85.326;2023-03-16T10:49:36;21.50;71.10
69204;DHT22;56317;27.658;85.326;2023-03-16T10:52:37;21.40;71.20
69204;DHT22;56317;27.658;85.326;2023-03-16T10:55:11;21.30;71.40
69204;DHT22;56317;27.658;85.326;2023-03-16T10:57:46;21.10;71.40
69204;DHT22;56317;27.658;85.326;2023-03-16T11:00:24;21.00;72.50
69204;DHT22;56317;27.658;85.326;2023-03-16T11:03:11;20.80;73.40
69204;DHT22;56317;27.658;85.326;2023-03-16T11:05:40;20.50;74.30
69204;DHT22;56317;27.658;85.326;2023-03-16T11:08:14;20.40;75.10
69204;DHT22;56317;27.658;85.326;2023-03-16T11:10:55;20.30;76.30
69204;DHT22;56317;27.658;85.326;2023-03-16T11:13:36;20.20;76.60
69204;DHT22;56317;27.658;85.326;2023-03-16T11:18:47;20.00;78.80
69204;DHT22;56317;27.658;85.326;2023-03-16T11:23:51;20.00;80.00
69204;DHT22;56317;27.658;85.326;2023-03-16T11:26:41;19.90;80.60
69204;DHT22;56317;27.658;85.326;2023-03-16T11:32:03;19.80;81.40
69204;DHT22;56317;27.658;85.326;2023-03-16T11:34:32;19.90;83.00
69204;DHT22;56317;27.658;85.326;2023-03-16T11:45:40;19.80;86.10
69204;DHT22;56317;27.658;85.326;2023-03-16T12:05:47;19.30;91.50
69204;DHT22;56317;27.658;85.326;2023-03-16T12:11:13;19.10;93.00
69204;DHT22;56317;27.658;85.326;2023-03-16T12:16:59;18.90;94.90
69204;DHT22;56317;27.658;85.326;2023-03-16T12:19:44;18.70;95.30
69204;DHT22;56317;27.658;85.326;2023-03-16T12:22:53;18.60;96.40
69204;DHT22;56317;27.658;85.326;2023-03-16T12:25:33;18.50;97.00
69204;DHT22;56317;27.658;85.326;2023-03-16T12:28:05;18.40;98.00
69204;DHT22;56317;27.658;85.326;2023-03-16T12:31:00;18.30;98.70
69204;DHT22;56317;27.658;85.326;2023-03-16T12:47:02;17.70;99.90
69204;DHT22;56317;27.658;85.326;2023-03-16T12:49:33;17.70;99.90
69204;DHT22;56317;27.658;85.326;2023-03-16T12:52:05;17.60;99.90
69204;DHT22;56317;27.658;85.326;2023-03-16T12:54:33;17.60;99.90
69204;DHT22;56317;27.658;85.326;2023-03-16T12:57:05;17.50;99.90
69204;DHT22;56317;27.658;85.326;2023-03-16T12:59:42;17.50;99.90
69204;DHT22;56317;27.658;85.326;2023-03-16T13:02:35;17.50;99.90
69204;DHT22;56317;27.658;85.326;2023-03-16T13:05:14;17.50;99.90
69204;DHT22;56317;27.658;85.326;2023-03-16T13:07:51;17.40;99.90
69204;DHT22;56317;27.658;85.326;2023-03-16T13:10:20;17.40;99.90
69204;DHT22;56317;27.658;85.326;2023-03-16T13:12:48;17.30;99.90
69204;DHT22;56317;27.658;85.326;2023-03-16T13:18:19;17.20;99.90
69204;DHT22;56317;27.658;85.326;2023-03-16T13:21:12;17.20;99.90
69204;DHT22;56317;27.658;85.326;2023-03-16T13:26:42;17.10;99.90
69204;DHT22;56317;27.658;85.326;2023-03-16T13:29:31;17.00;99.90
69204;DHT22;56317;27.658;85.326;2023-03-16T13:32:06;17.00;99.90
69204;DHT22;56317;27.658;85.326;2023-03-16T13:34:46;16.90;99.90
69204;DHT22;56317;27.658;85.326;2023-03-16T13:37:18;16.80;99.90
69204;DHT22;56317;27.658;85.326;2023-03-16T13:40:00;16.80;99.90
69204;DHT22;56317;27.658;85.326;2023-03-16T13:42:31;16.80;99.90
69204;DHT22;56317;27.658;85.326;2023-03-16T13:45:14;16.70;99.90
69204;DHT22;56317;27.658;85.326;2023-03-16T13:47:43;16.70;99.90
69204;DHT22;56317;27.658;85.326;2023-03-16T13:50:13;16.60;99.90
69204;DHT22;56317;27.658;85.326;2023-03-16T13:52:42;16.60;99.90
69204;DHT22;56317;27.658;85.326;2023-03-16T13:55:17;16.50;99.90
69204;DHT22;56317;27.658;85.326;2023-03-16T13:57:47;16.50;99.90
69204;DHT22;56317;27.658;85.326;2023-03-16T14:00:24;16.40;99.90
69204;DHT22;56317;27.658;85.326;2023-03-16T14:02:54;16.40;99.90
69204;DHT22;56317;27.658;85.326;2023-03-16T14:07:56;16.30;99.90
69204;DHT22;56317;27.658;85.326;2023-03-16T14:10:31;16.20;99.90
69204;DHT22;56317;27.658;85.326;2023-03-16T14:13:08;16.20;99.90
69204;DHT22;56317;27.658;85.326;2023-03-16T14:15:37;16.20;99.90
69204;DHT22;56317;27.658;85.326;2023-03-16T14:18:18;16.20;99.90
69204;DHT22;56317;27.658;85.326;2023-03-16T14:20:54;16.20;99.90
69204;DHT22;56317;27.658;85.326;2023-03-16T14:23:27;16.20;99.90
69204;DHT22;56317;27.658;85.326;2023-03-16T14:25:57;16.20;99.90
69204;DHT22;56317;27.658;85.326;2023-03-16T14:28:30;16.30;99.90
69204;DHT22;56317;27.658;85.326;2023-03-16T14:31:09;16.40;99.90
69204;DHT22;56317;27.658;85.326;2023-03-16T14:33:39;16.50;99.90
69204;DHT22;56317;27.658;85.326;2023-03-16T14:36:11;16.50;99.90
69204;DHT22;56317;27.658;85.326;2023-03-16T14:38:40;16.40;99.90
69204;DHT22;56317;27.658;85.326;2023-03-16T14:43:47;16.30;99.90
69204;DHT22;56317;27.658;85.326;2023-03-16T14:46:23;16.20;99.90
69204;DHT22;56317;27.658;85.326;2023-03-16T14:51:45;16.00;99.90
69204;DHT22;56317;27.658;85.326;2023-03-16T14:54:15;15.90;99.90
69204;DHT22;56317;27.658;85.326;2023-03-16T14:56:54;15.90;99.90
69204;DHT22;56317;27.658;85.326;2023-03-16T14:59:25;15.80;99.90
69204;DHT22;56317;27.658;85.326;2023-03-16T15:01:52;15.70;99.90
69204;DHT22;56317;27.658;85.326;2023-03-16T15:04:41;15.60;99.90
69204;DHT22;56317;27.658;85.326;2023-03-16T15:09:45;15.40;99.90
69204;DHT22;56317;27.658;85.326;2023-03-16T15:12:17;15.20;99.90
69204;DHT22;56317;27.658;85.326;2023-03-16T15:14:46;15.10;99.90
69204;DHT22;56317;27.658;85.326;2023-03-16T15:17:31;15.00;99.90
69204;DHT22;56317;27.658;85.326;2023-03-16T15:19:58;14.90;99.90
69204;DHT22;56317;27.658;85.326;2023-03-16T15:22:40;14.90;99.90
69204;DHT22;56317;27.658;85.326;2023-03-16T15:25:24;14.80;99.90
69204;DHT22;56317;27.658;85.326;2023-03-16T15:27:54;14.70;99.90
69204;DHT22;56317;27.658;85.326;2023-03-16T15:30:24;14.60;99.90
69204;DHT22;56317;27.658;85.326;2023-03-16T15:32:52;14.60;99.90
69204;DHT22;56317;27.658;85.326;2023-03-16T15:35:20;14.50;99.90
69204;DHT22;56317;27.658;85.326;2023-03-16T15:37:47;14.50;99.90
69204;DHT22;56317;27.658;85.326;2023-03-16T15:42:49;14.50;99.90
69204;DHT22;56317;27.658;85.326;2023-03-16T15:45:21;14.50;99.90
69204;DHT22;56317;27.658;85.326;2023-03-16T15:47:50;14.40;99.90
69204;DHT22;56317;27.658;85.326;2023-03-16T15:50:20;14.40;99.90
69204;DHT22;56317;27.658;85.326;2023-03-16T15:52:51;14.30;99.90
69204;DHT22;56317;27.658;85.326;2023-03-16T15:55:22;14.30;99.90
69204;DHT22;56317;27.658;85.326;2023-03-16T15:57:57;14.30;99.90
69204;DHT22;56317;27.658;85.326;2023-03-16T16:00:36;14.20;99.90
69204;DHT22;56317;27.658;85.326;2023-03-16T16:03:05;14.20;99.90
69204;DHT22;56317;27.658;85.326;2023-03-16T16:05:33;14.20;99.90
69204;DHT22;56317;27.658;85.326;2023-03-16T16:08:00;14.30;99.90
69204;DHT22;56317;27.658;85.326;2023-03-16T16:10:30;14.30;99.90
69204;DHT22;56317;27.658;85.326;2023-03-16T16:12:58;14.30;99.90
69204;DHT22;56317;27.658;85.326;2023-03-16T16:15:34;14.40;99.90
69204;DHT22;56317;27.658;85.326;2023-03-16T16:18:12;14.40;99.90
69204;DHT22;56317;27.658;85.326;2023-03-16T16:20:44;14.40;99.90
69204;DHT22;56317;27.658;85.326;2023-03-16T16:23:11;14.40;99.90
69204;DHT22;56317;27.658;85.326;2023-03-16T16:25:40;14.40;99.90
69204;DHT22;56317;27.658;85.326;2023-03-16T16:28:25;14.30;99.90
69204;DHT22;56317;27.658;85.326;2023-03-16T16:30:53;14.20;99.90
69204;DHT22;56317;27.658;85.326;2023-03-16T16:35:51;14.20;99.90
69204;DHT22;56317;27.658;85.326;2023-03-16T16:38:19;14.10;99.90
69204;DHT22;56317;27.658;85.326;2023-03-16T16:40:46;14.10;99.90
69204;DHT22;56317;27.658;85.326;2023-03-16T16:43:44;14.10;99.90
69204;DHT22;56317;27.658;85.326;2023-03-16T16:46:41;14.10;99.90
69204;DHT22;56317;27.658;85.326;2023-03-16T16:49:22;14.10;99.90
69204;DHT22;56317;27.658;85.326;2023-03-16T16:51:51;14.10;99.90
69204;DHT22;56317;27.658;85.326;2023-03-16T16:54:23;14.10;99.90
69204;DHT22;56317;27.658;85.326;2023-03-16T16:56:53;14.00;99.90
69204;DHT22;56317;27.658;85.326;2023-03-16T16:59:41;14.00;99.90
69204;DHT22;56317;27.658;85.326;2023-03-16T17:02:41;13.90;99.90
69204;DHT22;56317;27.658;85.326;2023-03-16T17:05:22;13.80;99.90
69204;DHT22;56317;27.658;85.326;2023-03-16T17:07:50;13.70;99.90
69204;DHT22;56317;27.658;85.326;2023-03-16T17:10:22;13.70;99.90
69204;DHT22;56317;27.658;85.326;2023-03-16T17:12:54;13.60;99.90
69204;DHT22;56317;27.658;85.326;2023-03-16T17:15:29;13.50;99.90
69204;DHT22;56317;27.658;85.326;2023-03-16T17:18:03;13.40;99.90
69204;DHT22;56317;27.658;85.326;2023-03-16T17:20:32;13.20;99.90
69204;DHT22;56317;27.658;85.326;2023-03-16T17:23:00;13.20;99.90
69204;DHT22;56317;27.658;85.326;2023-03-16T17:25:27;13.20;99.90
69204;DHT22;56317;27.658;85.326;2023-03-16T17:27:56;13.10;99.90
69204;DHT22;56317;27.658;85.326;2023-03-16T17:30:26;13.10;99.90
69204;DHT22;56317;27.658;85.326;2023-03-16T17:33:08;13.10;99.90
69204;DHT22;56317;27.658;85.326;2023-03-16T17:35:37;13.30;99.90
69204;DHT22;56317;27.658;85.326;2023-03-16T17:38:21;13.30;99.90
69204;DHT22;56317;27.658;85.326;2023-03-16T17:40:51;13.30;99.90
69204;DHT22;56317;27.658;85.326;2023-03-16T17:43:21;13.30;99.90